createdAt,value
2023-02-25T00:00:34.370Z,98.90
2023-02-25T00:03:01.876Z,98.90
2023-02-25T00:05:31.814Z,98.90
2023-02-25T00:07:59.047Z,98.90
2023-02-25T00:10:25.938Z,98.90
2023-02-25T00:12:52.678Z,98.90
2023-02-25T00:15:19.473Z,98.90
2023-02-25T00:17:46.400Z,98.90
2023-02-25T00:20:14.055Z,98.90
2023-02-25T00:22:40.875Z,98.90
2023-02-25T00:25:09.179Z,98.90
2023-02-25T00:27:35.988Z,98.90
2023-02-25T00:30:03.064Z,98.90
2023-02-25T00:32:29.983Z,98.90
2023-02-25T00:34:57.497Z,98.90
2023-02-25T00:37:24.351Z,98.90
2023-02-25T00:39:51.089Z,98.90
2023-02-25T00:42:18.894Z,98.90
2023-02-25T00:44:47.155Z,99.00
2023-02-25T00:47:14.838Z,98.90
2023-02-25T00:49:42.007Z,98.90
2023-02-25T00:52:08.724Z,98.90
2023-02-25T00:54:35.558Z,98.90
2023-02-25T00:57:02.577Z,98.90
2023-02-25T00:59:29.305Z,98.90
2023-02-25T01:01:56.183Z,98.90
2023-02-25T01:04:22.976Z,98.90
2023-02-25T01:06:49.693Z,98.90
2023-02-25T01:09:16.952Z,98.90
2023-02-25T01:11:47.494Z,98.90
2023-02-25T01:14:15.531Z,98.90
2023-02-25T01:16:42.636Z,98.90
2023-02-25T01:19:11.647Z,98.90
2023-02-25T01:21:42.010Z,98.90
2023-02-25T01:24:11.616Z,98.90
2023-02-25T01:26:39.621Z,98.90
2023-02-25T01:29:22.874Z,98.90
2023-02-25T01:31:52.044Z,98.90
2023-02-25T01:34:18.946Z,98.90
2023-02-25T01:36:45.996Z,98.90
2023-02-25T01:39:13.581Z,98.90
2023-02-25T01:41:40.303Z,98.90
2023-02-25T01:44:13.124Z,98.90
2023-02-25T01:46:41.271Z,98.90
2023-02-25T01:49:28.979Z,98.90
2023-02-25T01:52:03.210Z,98.80
2023-02-25T01:54:30.747Z,98.90
2023-02-25T01:56:57.471Z,98.90
2023-02-25T01:59:26.360Z,98.90
2023-02-25T02:01:53.150Z,98.80
2023-02-25T02:04:20.320Z,98.80
2023-02-25T02:06:48.681Z,98.90
2023-02-25T02:09:18.121Z,98.90
2023-02-25T02:11:44.902Z,98.80
2023-02-25T02:14:14.581Z,98.90
2023-02-25T02:16:44.509Z,98.80
2023-02-25T02:19:20.146Z,98.80
2023-02-25T02:21:49.963Z,98.90
2023-02-25T02:24:19.777Z,98.90
2023-02-25T02:26:53.512Z,98.80
2023-02-25T02:29:28.726Z,98.80
2023-02-25T02:32:14.976Z,98.80
2023-02-25T02:34:54.127Z,98.80
2023-02-25T02:37:27.049Z,98.80
2023-02-25T02:40:05.913Z,98.80
2023-02-25T02:42:42.771Z,98.70
2023-02-25T02:45:24.773Z,98.80
2023-02-25T02:47:54.615Z,98.70
2023-02-25T02:50:33.983Z,98.80
2023-02-25T02:53:03.774Z,98.70
2023-02-25T02:55:36.115Z,98.80
2023-02-25T02:58:09.695Z,98.80
2023-02-25T03:00:39.795Z,98.80
2023-02-25T03:03:18.088Z,98.80
2023-02-25T03:05:46.842Z,98.90
2023-02-25T03:08:25.407Z,98.80
2023-02-25T03:10:52.303Z,98.80
2023-02-25T03:13:19.059Z,98.80
2023-02-25T03:15:46.345Z,98.70
2023-02-25T03:18:18.535Z,98.80
2023-02-25T03:20:47.078Z,98.70
2023-02-25T03:23:16.969Z,98.70
2023-02-25T03:25:48.604Z,98.70
2023-02-25T03:28:20.629Z,98.80
2023-02-25T03:30:50.996Z,98.70
2023-02-25T03:33:33.259Z,98.70
2023-02-25T03:36:01.623Z,98.70
2023-02-25T03:38:30.955Z,98.70
2023-02-25T03:40:59.902Z,98.70
2023-02-25T03:43:46.796Z,98.70
2023-02-25T03:46:14.377Z,98.70
2023-02-25T03:48:41.566Z,98.70
2023-02-25T03:51:09.135Z,98.70
2023-02-25T03:53:36.021Z,98.70
2023-02-25T03:56:05.472Z,98.60
2023-02-25T03:58:39.644Z,98.60
2023-02-25T04:01:08.803Z,98.60
2023-02-25T04:03:35.577Z,98.60
2023-02-25T04:06:02.346Z,98.60
2023-02-25T04:08:29.184Z,98.60
2023-02-25T04:10:55.953Z,98.60
2023-02-25T04:13:22.853Z,98.70
2023-02-25T04:15:50.015Z,98.70
2023-02-25T04:18:16.825Z,98.60
2023-02-25T04:20:43.901Z,98.60
2023-02-25T04:23:12.463Z,98.70
2023-02-25T04:25:39.292Z,98.60
2023-02-25T04:28:06.261Z,98.70
2023-02-25T04:30:34.374Z,98.60
2023-02-25T04:33:01.327Z,98.60
2023-02-25T04:35:28.366Z,98.60
2023-02-25T04:38:00.856Z,98.70
2023-02-25T04:40:27.665Z,98.70
2023-02-25T04:42:54.417Z,98.70
2023-02-25T04:45:26.928Z,98.70
2023-02-25T04:47:54.768Z,98.70
2023-02-25T04:50:21.483Z,98.60
2023-02-25T04:52:48.187Z,98.70
2023-02-25T04:55:15.177Z,98.70
2023-02-25T04:57:45.122Z,98.70
2023-02-25T05:00:16.656Z,98.70
2023-02-25T05:02:43.551Z,98.60
2023-02-25T05:05:11.211Z,98.70
2023-02-25T05:07:39.111Z,98.60
2023-02-25T05:10:06.793Z,98.70
2023-02-25T05:12:33.619Z,98.90
2023-02-25T05:15:00.473Z,98.70
2023-02-25T05:17:27.218Z,98.70
2023-02-25T05:19:53.971Z,98.60
2023-02-25T05:22:20.999Z,98.70
2023-02-25T05:24:47.722Z,98.60
2023-02-25T05:27:14.523Z,98.70
2023-02-25T05:29:41.417Z,98.60
2023-02-25T05:32:08.403Z,98.70
2023-02-25T05:34:35.502Z,98.70
2023-02-25T05:37:02.516Z,98.70
2023-02-25T05:39:29.349Z,98.80
2023-02-25T05:41:56.041Z,98.80
2023-02-25T05:44:22.816Z,98.70
2023-02-25T05:46:49.581Z,98.80
2023-02-25T05:49:16.603Z,98.70
2023-02-25T05:51:43.452Z,98.70
2023-02-25T05:54:10.168Z,98.70
2023-02-25T05:56:36.866Z,98.70
2023-02-25T05:59:03.597Z,98.70
2023-02-25T06:01:31.624Z,98.70
2023-02-25T06:03:59.084Z,98.60
2023-02-25T06:06:27.140Z,98.70
2023-02-25T06:08:54.019Z,98.60
2023-02-25T06:11:22.831Z,98.60
2023-02-25T06:13:50.303Z,98.60
2023-02-25T06:16:17.438Z,98.60
2023-02-25T06:18:46.246Z,98.60
2023-02-25T06:21:14.357Z,98.60
2023-02-25T06:23:41.844Z,98.60
2023-02-25T06:26:09.717Z,98.60
2023-02-25T06:28:36.925Z,98.50
2023-02-25T06:31:06.731Z,98.60
2023-02-25T06:33:33.683Z,98.60
2023-02-25T06:36:00.429Z,98.60
2023-02-25T06:38:27.166Z,98.90
2023-02-25T06:40:53.930Z,98.60
2023-02-25T06:43:20.821Z,98.60
2023-02-25T06:45:47.588Z,98.50
2023-02-25T06:48:14.320Z,98.60
2023-02-25T06:50:41.250Z,98.60
2023-02-25T06:53:08.707Z,98.60
2023-02-25T06:55:35.434Z,98.70
2023-02-25T06:58:02.270Z,98.60
2023-02-25T07:00:29.026Z,98.60
2023-02-25T07:02:55.759Z,98.60
2023-02-25T07:05:22.558Z,98.60
2023-02-25T07:07:49.303Z,98.60
2023-02-25T07:10:16.205Z,98.50
2023-02-25T07:12:43.046Z,98.60
2023-02-25T07:15:10.010Z,98.60
2023-02-25T07:17:37.629Z,98.60
2023-02-25T07:20:04.612Z,98.60
2023-02-25T07:22:31.453Z,98.50
2023-02-25T07:24:58.200Z,98.60
2023-02-25T07:27:25.116Z,98.60
2023-02-25T07:29:51.834Z,98.60
2023-02-25T07:32:18.697Z,98.70
2023-02-25T07:34:45.729Z,98.70
2023-02-25T07:37:12.865Z,98.60
2023-02-25T07:39:39.591Z,98.70
2023-02-25T07:42:06.394Z,98.60
2023-02-25T07:44:35.215Z,98.60
2023-02-25T07:47:02.049Z,98.70
2023-02-25T07:49:28.795Z,98.70
2023-02-25T07:51:55.520Z,98.70
2023-02-25T07:54:22.914Z,98.70
2023-02-25T07:56:52.650Z,98.70
2023-02-25T07:59:19.486Z,98.70
2023-02-25T08:01:46.286Z,98.70
2023-02-25T08:04:13.193Z,98.70
2023-02-25T08:06:41.056Z,98.70
2023-02-25T08:09:08.668Z,98.70
2023-02-25T08:11:35.416Z,98.80
2023-02-25T08:14:02.131Z,98.80
2023-02-25T08:16:28.903Z,98.80
2023-02-25T08:18:55.782Z,98.90
2023-02-25T08:21:23.718Z,98.90
2023-02-25T08:23:51.994Z,98.80
2023-02-25T08:26:19.260Z,98.90
2023-02-25T08:28:46.186Z,98.90
2023-02-25T08:31:13.168Z,98.90
2023-02-25T08:33:41.414Z,98.90
2023-02-25T08:36:09.643Z,98.90
2023-02-25T08:38:37.442Z,98.90
2023-02-25T08:41:04.534Z,99.00
2023-02-25T08:43:32.234Z,99.00
2023-02-25T08:46:00.203Z,99.00
2023-02-25T08:48:28.199Z,98.90
2023-02-25T08:50:55.662Z,99.00
2023-02-25T08:53:22.891Z,99.20
2023-02-25T08:55:51.176Z,98.90
2023-02-25T08:58:18.021Z,98.90
2023-02-25T09:00:44.823Z,99.00
2023-02-25T09:03:11.562Z,98.80
2023-02-25T09:05:38.252Z,98.90
2023-02-25T09:08:05.012Z,98.90
2023-02-25T09:10:48.232Z,98.80
2023-02-25T09:13:17.270Z,98.90
2023-02-25T09:15:44.058Z,98.90
2023-02-25T09:18:11.889Z,98.90
2023-02-25T09:20:38.782Z,98.90
2023-02-25T09:23:05.675Z,98.90
2023-02-25T09:25:32.432Z,98.90
2023-02-25T09:27:59.133Z,98.80
2023-02-25T09:30:26.618Z,98.80
2023-02-25T09:32:53.576Z,98.80
2023-02-25T09:35:20.398Z,98.70
2023-02-25T09:37:47.226Z,98.80
2023-02-25T09:40:17.194Z,98.80
2023-02-25T09:42:53.662Z,99.10
2023-02-25T09:45:23.200Z,98.80
2023-02-25T09:47:52.498Z,98.80
2023-02-25T09:50:39.698Z,98.80
2023-02-25T09:53:10.135Z,98.70
2023-02-25T09:55:38.908Z,98.80
2023-02-25T09:58:28.995Z,98.80
2023-02-25T10:00:58.737Z,98.80
2023-02-25T10:03:33.693Z,98.80
2023-02-25T10:06:03.204Z,98.70
2023-02-25T10:08:39.164Z,98.80
2023-02-25T10:11:17.259Z,98.60
2023-02-25T10:13:44.000Z,98.70
2023-02-25T10:16:10.764Z,98.60
2023-02-25T10:18:56.426Z,98.80
2023-02-25T10:21:38.198Z,98.60
2023-02-25T10:24:05.020Z,98.80
2023-02-25T10:26:34.895Z,98.80
2023-02-25T10:29:11.556Z,98.80
2023-02-25T10:31:39.150Z,98.70
2023-02-25T10:34:39.011Z,98.60
2023-02-25T10:37:07.258Z,98.70
2023-02-25T10:39:34.245Z,98.70
2023-02-25T10:42:01.110Z,98.70
2023-02-25T10:44:27.976Z,98.60
2023-02-25T10:46:57.968Z,98.70
2023-02-25T10:49:26.538Z,98.60
2023-02-25T10:52:04.733Z,98.70
2023-02-25T10:54:36.051Z,98.70
2023-02-25T10:57:08.535Z,98.70
2023-02-25T10:59:39.492Z,98.70
2023-02-25T11:02:18.414Z,98.70
2023-02-25T11:04:45.942Z,98.70
2023-02-25T11:07:27.839Z,98.70
2023-02-25T11:10:06.997Z,98.70
2023-02-25T11:12:40.703Z,98.70
2023-02-25T11:15:45.841Z,98.70
2023-02-25T11:18:23.720Z,98.70
2023-02-25T11:20:55.566Z,98.60
2023-02-25T11:23:25.630Z,98.60
2023-02-25T11:25:53.962Z,98.60
2023-02-25T11:28:41.318Z,98.60
2023-02-25T11:31:19.701Z,98.70
2023-02-25T11:33:52.709Z,98.70
2023-02-25T11:36:29.859Z,98.70
2023-02-25T11:39:05.336Z,98.70
2023-02-25T11:41:32.424Z,98.70
2023-02-25T11:44:10.594Z,98.70
2023-02-25T11:46:37.694Z,98.70
2023-02-25T11:49:11.212Z,98.70
2023-02-25T11:52:01.200Z,98.70
2023-02-25T11:54:31.308Z,98.70
2023-02-25T11:57:09.176Z,98.70
2023-02-25T11:59:38.448Z,98.70
2023-02-25T12:02:25.472Z,98.70
2023-02-25T12:04:52.247Z,98.70
2023-02-25T12:07:37.259Z,98.70
2023-02-25T12:10:16.221Z,98.80
2023-02-25T12:12:55.364Z,98.80
2023-02-25T12:15:31.301Z,98.80
2023-02-25T12:18:13.396Z,98.80
2023-02-25T12:20:52.116Z,98.80
2023-02-25T12:23:31.134Z,98.80
2023-02-25T12:26:15.133Z,98.80
2023-02-25T12:28:54.062Z,98.90
2023-02-25T12:31:50.272Z,98.90
2023-02-25T12:34:17.064Z,98.90
2023-02-25T12:36:53.208Z,98.90
2023-02-25T12:39:22.457Z,98.90
2023-02-25T12:41:49.947Z,98.90
2023-02-25T12:44:35.350Z,98.90
2023-02-25T12:47:23.326Z,98.90
2023-02-25T12:50:08.774Z,98.90
2023-02-25T12:52:54.029Z,98.90
2023-02-25T12:55:21.010Z,98.90
2023-02-25T12:58:00.104Z,98.90
2023-02-25T13:00:26.877Z,98.90
2023-02-25T13:02:53.613Z,98.90
2023-02-25T13:05:46.716Z,98.90
2023-02-25T13:08:22.673Z,98.90
2023-02-25T13:10:55.600Z,98.90
2023-02-25T13:13:22.365Z,98.90
2023-02-25T13:16:12.722Z,98.90
2023-02-25T13:18:57.938Z,99.00
2023-02-25T13:21:47.898Z,98.90
2023-02-25T13:24:23.207Z,98.90
2023-02-25T13:26:57.502Z,99.00
2023-02-25T13:29:27.445Z,99.00
2023-02-25T13:31:54.363Z,99.00
2023-02-25T13:34:45.091Z,99.00
2023-02-25T13:37:15.135Z,99.00
2023-02-25T13:40:00.657Z,99.00
2023-02-25T13:42:27.588Z,99.00
2023-02-25T13:44:57.354Z,99.00
2023-02-25T13:47:24.183Z,99.00
2023-02-25T13:49:51.030Z,99.00
2023-02-25T13:52:28.209Z,99.00
2023-02-25T13:55:08.143Z,99.00
2023-02-25T13:57:40.791Z,99.00
2023-02-25T14:00:26.270Z,99.00
2023-02-25T14:03:06.333Z,99.00
2023-02-25T14:05:33.019Z,99.00
2023-02-25T14:08:00.178Z,99.00
2023-02-25T14:10:45.379Z,99.00
2023-02-25T14:13:30.977Z,98.90
2023-02-25T14:16:16.253Z,99.00
2023-02-25T14:18:53.696Z,99.00
2023-02-25T14:21:29.949Z,99.00
2023-02-25T14:23:59.400Z,99.00
2023-02-25T14:26:29.543Z,99.00
2023-02-25T14:29:02.175Z,99.00
2023-02-25T14:31:47.890Z,99.10
2023-02-25T14:34:20.563Z,99.10
2023-02-25T14:37:00.740Z,99.00
2023-02-25T14:39:27.756Z,99.00
2023-02-25T14:41:54.498Z,99.00
2023-02-25T14:44:32.299Z,99.00
2023-02-25T14:47:18.167Z,99.00
2023-02-25T14:49:48.183Z,99.10
2023-02-25T14:52:27.327Z,99.10
2023-02-25T14:55:14.278Z,99.10
2023-02-25T14:58:00.383Z,99.00
2023-02-25T15:00:45.848Z,99.00
2023-02-25T15:03:36.431Z,99.00
2023-02-25T15:06:09.666Z,99.00
2023-02-25T15:08:39.200Z,99.10
2023-02-25T15:11:12.210Z,99.00
2023-02-25T15:13:54.103Z,99.10
2023-02-25T15:16:20.875Z,99.00
2023-02-25T15:19:07.582Z,99.00
2023-02-25T15:21:34.763Z,99.00
2023-02-25T15:24:01.644Z,98.90
2023-02-25T15:26:42.330Z,99.10
2023-02-25T15:29:29.306Z,99.00
2023-02-25T15:32:22.354Z,99.00
2023-02-25T15:35:12.252Z,99.10
2023-02-25T15:37:51.242Z,99.10
2023-02-25T15:40:18.949Z,99.10
2023-02-25T15:42:48.696Z,99.10
2023-02-25T15:45:27.836Z,99.10
2023-02-25T15:48:06.844Z,99.00
2023-02-25T15:50:42.762Z,99.10
2023-02-25T15:53:09.755Z,99.10
2023-02-25T15:55:43.188Z,99.10
2023-02-25T15:58:25.473Z,99.10
2023-02-25T16:00:58.714Z,99.10
2023-02-25T16:03:27.761Z,99.10
2023-02-25T16:05:58.827Z,99.10
2023-02-25T16:08:27.986Z,99.10
2023-02-25T16:10:56.054Z,99.10
2023-02-25T16:13:30.772Z,99.10
2023-02-25T16:15:57.833Z,99.10
2023-02-25T16:18:27.696Z,99.10
2023-02-25T16:20:58.306Z,99.10
2023-02-25T16:23:25.497Z,99.10
2023-02-25T16:26:13.333Z,99.10
2023-02-25T16:28:46.296Z,99.10
2023-02-25T16:31:18.848Z,99.40
2023-02-25T16:33:48.444Z,99.10
2023-02-25T16:36:21.522Z,99.10
2023-02-25T16:39:11.551Z,99.20
2023-02-25T16:41:39.473Z,99.20
2023-02-25T16:44:07.296Z,99.20
2023-02-25T16:46:36.204Z,99.20
2023-02-25T16:49:18.210Z,99.10
2023-02-25T16:51:45.346Z,99.20
2023-02-25T16:54:41.672Z,99.20
2023-02-25T16:57:18.856Z,99.40
2023-02-25T16:59:46.911Z,99.20
2023-02-25T17:02:16.667Z,99.10
2023-02-25T17:04:47.771Z,99.10
2023-02-25T17:07:23.180Z,99.20
2023-02-25T17:09:51.624Z,99.10
2023-02-25T17:12:20.451Z,99.20
2023-02-25T17:14:49.273Z,99.20
2023-02-25T17:17:18.165Z,99.50
2023-02-25T17:19:45.018Z,99.20
2023-02-25T17:22:11.813Z,99.20
2023-02-25T17:24:40.305Z,99.20
2023-02-25T17:27:12.920Z,99.20
2023-02-25T17:29:39.844Z,99.20
2023-02-25T17:32:18.784Z,99.20
2023-02-25T17:34:46.227Z,99.30
2023-02-25T17:37:13.558Z,99.20
2023-02-25T17:39:40.604Z,99.20
2023-02-25T17:42:26.103Z,99.30
2023-02-25T17:44:52.917Z,99.20
2023-02-25T17:47:40.141Z,99.20
2023-02-25T17:50:13.208Z,99.20
2023-02-25T17:52:40.086Z,99.20
2023-02-25T17:55:20.263Z,99.30
2023-02-25T17:57:47.473Z,99.20
2023-02-25T18:00:17.342Z,99.20
2023-02-25T18:02:44.503Z,99.20
2023-02-25T18:05:16.739Z,99.30
2023-02-25T18:07:44.326Z,99.30
2023-02-25T18:10:23.041Z,99.20
2023-02-25T18:12:50.214Z,99.20
2023-02-25T18:15:18.379Z,99.30
2023-02-25T18:17:52.692Z,99.30
2023-02-25T18:20:40.202Z,99.30
2023-02-25T18:23:08.566Z,99.30
2023-02-25T18:25:37.000Z,99.30
2023-02-25T18:28:04.815Z,99.30
2023-02-25T18:30:32.125Z,99.30
2023-02-25T18:32:59.353Z,99.30
2023-02-25T18:35:27.100Z,99.30
2023-02-25T18:37:54.722Z,99.20
2023-02-25T18:40:40.407Z,99.40
2023-02-25T18:43:07.665Z,99.30
2023-02-25T18:45:34.694Z,99.30
2023-02-25T18:48:01.861Z,99.30
2023-02-25T18:50:29.528Z,99.30
2023-02-25T18:52:56.360Z,99.30
2023-02-25T18:55:27.739Z,99.30
2023-02-25T18:57:54.674Z,99.30
2023-02-25T19:00:22.812Z,99.30
2023-02-25T19:02:54.592Z,99.30
2023-02-25T19:05:22.630Z,99.30
2023-02-25T19:07:49.933Z,99.40
2023-02-25T19:10:17.843Z,99.40
2023-02-25T19:12:45.373Z,99.30
2023-02-25T19:15:14.223Z,99.30
2023-02-25T19:17:40.987Z,99.30
2023-02-25T19:20:09.112Z,99.30
2023-02-25T19:22:40.933Z,99.30
2023-02-25T19:25:11.448Z,99.30
2023-02-25T19:27:38.180Z,99.40
2023-02-25T19:30:05.244Z,99.40
2023-02-25T19:32:32.083Z,99.30
2023-02-25T19:34:58.953Z,99.40
2023-02-25T19:37:27.812Z,99.40
2023-02-25T19:39:54.957Z,99.40
2023-02-25T19:42:21.658Z,99.40
2023-02-25T19:44:48.394Z,99.40
2023-02-25T19:47:15.186Z,99.40
2023-02-25T19:49:41.911Z,99.30
2023-02-25T19:52:08.645Z,99.40
2023-02-25T19:54:35.541Z,99.40
2023-02-25T19:57:02.287Z,99.30
2023-02-25T19:59:29.824Z,99.40
2023-02-25T20:01:57.260Z,99.50
2023-02-25T20:04:24.142Z,99.40
2023-02-25T20:06:50.942Z,99.30
2023-02-25T20:09:19.550Z,99.40
2023-02-25T20:11:46.633Z,99.40
2023-02-25T20:14:14.937Z,99.40
2023-02-25T20:16:41.856Z,99.40
2023-02-25T20:19:08.929Z,99.40
2023-02-25T20:21:35.909Z,99.40
2023-02-25T20:24:03.017Z,99.40
2023-02-25T20:26:30.594Z,99.40
2023-02-25T20:28:57.466Z,99.40
2023-02-25T20:31:25.009Z,99.40
2023-02-25T20:33:53.325Z,99.40
2023-02-25T20:36:21.293Z,99.40
2023-02-25T20:39:00.386Z,99.40
2023-02-25T20:41:28.271Z,99.40
2023-02-25T20:43:55.449Z,99.40
2023-02-25T20:46:26.661Z,99.40
2023-02-25T20:48:53.594Z,99.40
2023-02-25T20:51:20.671Z,99.40
2023-02-25T20:53:47.755Z,99.40
2023-02-25T20:56:16.537Z,99.40
2023-02-25T20:58:43.259Z,99.40
2023-02-25T21:01:10.151Z,99.40
2023-02-25T21:03:36.877Z,99.50
2023-02-25T21:06:03.650Z,99.40
2023-02-25T21:08:30.457Z,99.40
2023-02-25T21:10:57.809Z,99.40
2023-02-25T21:13:24.580Z,99.40
2023-02-25T21:15:51.435Z,99.40
2023-02-25T21:18:18.174Z,99.40
2023-02-25T21:20:44.934Z,99.40
2023-02-25T21:23:11.746Z,99.40
2023-02-25T21:25:38.469Z,99.40
2023-02-25T21:28:05.200Z,99.40
2023-02-25T21:30:32.142Z,99.40
2023-02-25T21:32:58.909Z,99.50
2023-02-25T21:35:25.855Z,99.40
2023-02-25T21:37:52.665Z,99.40
2023-02-25T21:40:19.447Z,99.40
2023-02-25T21:42:46.167Z,99.50
2023-02-25T21:45:13.187Z,99.50
2023-02-25T21:47:39.946Z,99.50
2023-02-25T21:50:06.900Z,99.50
2023-02-25T21:52:33.690Z,99.50
2023-02-25T21:55:00.403Z,99.50
2023-02-25T21:57:27.097Z,99.40
2023-02-25T21:59:53.828Z,99.40
2023-02-25T22:02:20.754Z,99.50
2023-02-25T22:04:47.880Z,99.50
2023-02-25T22:07:14.713Z,99.50
2023-02-25T22:09:41.470Z,99.50
2023-02-25T22:12:08.167Z,99.50
2023-02-25T22:14:34.972Z,99.50
2023-02-25T22:17:02.159Z,99.50
2023-02-25T22:19:29.116Z,99.50
2023-02-25T22:21:55.980Z,99.50
2023-02-25T22:24:22.728Z,99.50
2023-02-25T22:26:51.105Z,99.50
2023-02-25T22:29:18.076Z,99.50
2023-02-25T22:31:44.948Z,99.50
2023-02-25T22:34:11.838Z,99.50
2023-02-25T22:36:38.685Z,99.50
2023-02-25T22:39:06.723Z,99.50
2023-02-25T22:41:33.932Z,99.50
2023-02-25T22:44:01.084Z,99.50
2023-02-25T22:46:32.196Z,99.50
2023-02-25T22:48:59.070Z,99.50
2023-02-25T22:51:30.241Z,99.50
2023-02-25T22:53:57.402Z,99.50
2023-02-25T22:56:24.814Z,99.50
2023-02-25T22:58:52.166Z,99.50
2023-02-25T23:01:19.962Z,99.50
2023-02-25T23:03:47.465Z,99.50
2023-02-25T23:06:15.762Z,99.50
2023-02-25T23:08:42.683Z,99.50
2023-02-25T23:11:16.658Z,99.50
2023-02-25T23:13:48.097Z,99.50
2023-02-25T23:16:16.200Z,99.50
2023-02-25T23:18:43.335Z,99.50
2023-02-25T23:21:15.775Z,99.60
2023-02-25T23:23:43.228Z,99.60
2023-02-25T23:26:12.228Z,99.80
2023-02-25T23:28:39.267Z,99.50
2023-02-25T23:31:06.141Z,99.50
2023-02-25T23:33:33.467Z,99.50
2023-02-25T23:36:01.270Z,99.60
2023-02-25T23:38:28.078Z,99.60
2023-02-25T23:41:01.070Z,99.50
2023-02-25T23:43:27.771Z,99.50
2023-02-25T23:45:54.542Z,99.50
2023-02-25T23:48:21.408Z,99.60
2023-02-25T23:50:48.563Z,99.50
2023-02-25T23:53:15.341Z,99.60
2023-02-25T23:55:42.318Z,99.70
2023-02-25T23:58:09.038Z,99.60
